createdAt,value
2019-01-03T00:00:44.812Z,62.17
2019-01-03T00:03:39.834Z,57.10
2019-01-03T00:06:43.054Z,81.57
2019-01-03T00:09:39.635Z,72.83
2019-01-03T00:12:26.151Z,171.50
2019-01-03T00:15:11.326Z,135.67
2019-01-03T00:18:10.873Z,279.83
2019-01-03T00:21:02.334Z,147.13
2019-01-03T00:23:59.623Z,19.73
2019-01-03T00:26:45.886Z,121.80
2019-01-03T00:29:45.703Z,134.03
2019-01-03T00:32:31.234Z,89.47
2019-01-03T00:35:17.691Z,247.30
2019-01-03T00:38:07.815Z,68.13
2019-01-03T00:40:54.034Z,90.50
2019-01-03T00:43:38.143Z,86.83
2019-01-03T00:46:18.069Z,284.93
2019-01-03T00:49:04.828Z,106.63
2019-01-03T00:52:04.235Z,79.73
2019-01-03T00:54:50.514Z,221.80
2019-01-03T00:57:44.162Z,74.03
2019-01-03T01:00:30.790Z,167.53
2019-01-03T01:03:22.131Z,209.97
2019-01-03T01:06:14.350Z,127.53
2019-01-03T01:09:11.098Z,68.50
2019-01-03T01:12:08.796Z,76.27
2019-01-03T01:14:53.922Z,29.40
2019-01-03T01:17:40.348Z,57.27
2019-01-03T01:20:26.698Z,205.13
2019-01-03T01:23:13.246Z,19.97
2019-01-03T01:26:07.157Z,86.27
2019-01-03T01:28:53.303Z,14.20
2019-01-03T01:31:39.873Z,30.10
2019-01-03T01:34:29.591Z,44.07
2019-01-03T01:37:20.994Z,75.90
2019-01-03T01:39:59.439Z,28.20
2019-01-03T01:43:05.598Z,11.57
2019-01-03T01:45:59.058Z,11.77
2019-01-03T01:48:45.252Z,33.53
2019-01-03T01:51:26.514Z,8.73
2019-01-03T01:54:13.631Z,10.20
2019-01-03T01:57:01.494Z,15.07
2019-01-03T01:59:47.810Z,9.23
2019-01-03T02:02:34.215Z,12.27
2019-01-03T02:05:30.966Z,46.60
2019-01-03T02:08:17.149Z,34.33
2019-01-03T02:11:03.647Z,7.67
2019-01-03T02:13:50.367Z,26.43
2019-01-03T02:16:33.561Z,39.73
2019-01-03T02:19:15.759Z,11.40
2019-01-03T02:22:03.243Z,7.17
2019-01-03T02:24:55.614Z,29.73
2019-01-03T02:27:54.719Z,9.07
2019-01-03T02:30:42.210Z,5.67
2019-01-03T02:33:44.988Z,7.27
2019-01-03T02:36:31.764Z,7.67
2019-01-03T02:39:15.211Z,8.90
2019-01-03T02:42:08.503Z,6.60
2019-01-03T02:44:47.554Z,6.43
2019-01-03T02:47:38.343Z,7.97
2019-01-03T02:50:18.930Z,7.70
2019-01-03T02:53:04.970Z,5.70
2019-01-03T02:55:56.235Z,5.33
2019-01-03T02:58:53.214Z,6.83
2019-01-03T03:01:35.511Z,31.80
2019-01-03T03:04:19.134Z,7.83
2019-01-03T03:07:11.966Z,8.00
2019-01-03T03:09:58.402Z,6.03
2019-01-03T03:12:39.974Z,7.67
2019-01-03T03:15:27.830Z,11.90
2019-01-03T03:18:19.846Z,8.80
2019-01-03T03:21:06.043Z,8.83
2019-01-03T03:23:59.878Z,6.73
2019-01-03T03:26:39.360Z,9.30
2019-01-03T03:29:23.223Z,7.00
2019-01-03T03:32:09.668Z,8.10
2019-01-03T03:35:06.200Z,8.67
2019-01-03T03:37:59.806Z,10.37
2019-01-03T03:40:46.318Z,42.93
2019-01-03T03:43:32.875Z,32.33
2019-01-03T03:46:38.828Z,13.57
2019-01-03T03:49:23.467Z,9.97
2019-01-03T03:52:17.131Z,12.10
2019-01-03T03:55:12.927Z,30.17
2019-01-03T03:58:00.400Z,11.37
2019-01-03T04:00:46.744Z,47.03
2019-01-03T04:03:33.287Z,66.00
2019-01-03T04:06:37.949Z,46.50
2019-01-03T04:09:14.895Z,39.27
2019-01-03T04:12:05.462Z,107.90
2019-01-03T04:14:55.137Z,66.10
2019-01-03T04:17:41.583Z,76.87
2019-01-03T04:20:29.157Z,209.30
2019-01-03T04:23:15.959Z,38.77
2019-01-03T04:26:02.487Z,187.40
2019-01-03T04:28:53.045Z,88.70
2019-01-03T04:31:39.491Z,303.40
2019-01-03T04:34:27.519Z,366.17
2019-01-03T04:37:17.888Z,351.70
2019-01-03T04:40:05.351Z,16.70
2019-01-03T04:42:47.746Z,64.50
2019-01-03T04:45:41.547Z,261.00
2019-01-03T04:48:22.398Z,308.67
2019-01-03T04:51:13.313Z,229.23
2019-01-03T04:54:00.060Z,157.87
2019-01-03T04:56:43.459Z,205.77
2019-01-03T04:59:37.234Z,384.63
2019-01-03T05:02:34.370Z,187.23
2019-01-03T05:05:19.879Z,561.70
2019-01-03T05:08:06.331Z,297.57
2019-01-03T05:10:51.329Z,167.50
2019-01-03T05:13:45.047Z,121.70
2019-01-03T05:16:42.871Z,52.50
2019-01-03T05:19:36.731Z,300.27
2019-01-03T05:22:33.515Z,90.60
2019-01-03T05:25:27.128Z,428.20
2019-01-03T05:28:05.458Z,74.67
2019-01-03T05:30:53.081Z,170.23
2019-01-03T05:33:49.774Z,108.83
2019-01-03T05:36:49.317Z,226.20
2019-01-03T05:39:35.768Z,170.83
2019-01-03T05:42:26.298Z,152.97
2019-01-03T05:45:14.171Z,222.73
2019-01-03T05:48:04.717Z,217.13
2019-01-03T05:50:51.239Z,191.30
2019-01-03T05:53:49.457Z,52.40
2019-01-03T05:56:35.965Z,171.20
2019-01-03T05:59:35.302Z,285.93
2019-01-03T06:02:19.963Z,334.53
2019-01-03T06:05:06.447Z,443.07
2019-01-03T06:07:54.887Z,490.53
2019-01-03T06:10:36.839Z,485.17
2019-01-03T06:13:34.250Z,401.60
2019-01-03T06:16:27.798Z,333.87
2019-01-03T06:19:15.282Z,212.73
2019-01-03T06:22:03.477Z,497.63
2019-01-03T06:24:57.860Z,335.07
2019-01-03T06:27:44.246Z,612.03
2019-01-03T06:30:38.057Z,751.33
2019-01-03T06:33:25.142Z,218.90
2019-01-03T06:36:22.822Z,443.37
2019-01-03T06:39:10.690Z,509.63
2019-01-03T06:41:58.163Z,434.67
2019-01-03T06:44:38.758Z,348.30
2019-01-03T06:47:24.649Z,600.03
2019-01-03T06:50:11.341Z,297.83
2019-01-03T06:52:58.965Z,408.93
2019-01-03T06:55:56.967Z,468.63
2019-01-03T06:58:43.441Z,792.77
2019-01-03T07:01:31.198Z,658.47
2019-01-03T07:04:26.477Z,585.10
2019-01-03T07:07:13.006Z,448.20
2019-01-03T07:10:06.472Z,366.87
2019-01-03T07:13:10.078Z,729.17
2019-01-03T07:15:52.390Z,328.03
2019-01-03T07:18:46.566Z,410.00
2019-01-03T07:21:37.463Z,367.23
2019-01-03T07:24:23.962Z,523.87
2019-01-03T07:27:08.994Z,187.63
2019-01-03T07:29:56.556Z,83.80
2019-01-03T07:32:45.705Z,230.97
2019-01-03T07:35:32.245Z,250.37
2019-01-03T07:38:17.831Z,178.27
2019-01-03T07:41:01.957Z,178.63
2019-01-03T07:43:59.918Z,274.87
2019-01-03T07:46:43.053Z,185.20
2019-01-03T07:49:23.491Z,312.13
2019-01-03T07:52:26.205Z,191.60
2019-01-03T07:55:06.359Z,226.87
2019-01-03T07:57:59.690Z,56.23
2019-01-03T08:00:46.016Z,440.57
2019-01-03T08:03:33.525Z,272.67
2019-01-03T08:06:19.852Z,228.70
2019-01-03T08:09:06.229Z,113.03
2019-01-03T08:12:12.281Z,251.07
2019-01-03T08:14:54.244Z,219.70
2019-01-03T08:17:53.807Z,62.47
2019-01-03T08:20:41.302Z,460.27
2019-01-03T08:23:34.094Z,184.57
2019-01-03T08:26:30.333Z,29.07
2019-01-03T08:29:16.509Z,296.10
2019-01-03T08:32:03.066Z,164.30
2019-01-03T08:35:05.845Z,95.33
2019-01-03T08:37:56.206Z,20.17
2019-01-03T08:40:46.570Z,177.57
2019-01-03T08:43:32.811Z,632.97
2019-01-03T08:46:29.768Z,350.63
2019-01-03T08:49:13.551Z,261.33
2019-01-03T08:52:11.444Z,429.10
2019-01-03T08:55:07.691Z,253.43
2019-01-03T08:57:55.538Z,75.13
2019-01-03T09:00:42.118Z,120.47
2019-01-03T09:03:48.199Z,130.63
2019-01-03T09:06:42.078Z,364.87
2019-01-03T09:09:35.707Z,142.37
2019-01-03T09:12:22.525Z,211.27
2019-01-03T09:15:08.734Z,326.13
2019-01-03T09:18:14.715Z,389.83
2019-01-03T09:21:01.427Z,280.77
2019-01-03T09:23:45.460Z,343.53
2019-01-03T09:26:33.219Z,358.63
2019-01-03T09:29:23.661Z,358.37
2019-01-03T09:32:09.794Z,414.97
2019-01-03T09:34:56.694Z,505.63
2019-01-03T09:37:42.882Z,200.03
2019-01-03T09:40:29.367Z,192.23
2019-01-03T09:43:29.294Z,202.83
2019-01-03T09:45:57.671Z,471.67
2019-01-03T09:48:25.939Z,254.03
2019-01-03T09:50:54.590Z,86.17
2019-01-03T09:53:22.962Z,158.93
2019-01-03T09:55:51.330Z,176.33
2019-01-03T09:58:20.549Z,103.37
2019-01-03T10:00:48.934Z,111.80
2019-01-03T10:03:17.489Z,225.60
2019-01-03T10:05:46.154Z,95.60
2019-01-03T10:08:19.514Z,44.53
2019-01-03T10:10:44.474Z,160.07
2019-01-03T10:13:12.904Z,214.40
2019-01-03T10:15:41.214Z,240.30
2019-01-03T10:18:09.497Z,102.77
2019-01-03T10:20:37.762Z,126.13
2019-01-03T10:23:06.055Z,267.07
2019-01-03T10:25:34.617Z,110.43
2019-01-03T10:28:02.898Z,151.70
2019-01-03T10:30:31.245Z,456.47
2019-01-03T10:32:59.513Z,98.53
2019-01-03T10:35:27.879Z,202.03
2019-01-03T10:37:56.228Z,329.10
2019-01-03T10:40:24.745Z,61.07
2019-01-03T10:42:53.102Z,242.37
2019-01-03T10:45:21.364Z,177.47
2019-01-03T10:47:49.768Z,124.13
2019-01-03T10:50:18.039Z,277.20
2019-01-03T10:52:46.598Z,259.53
2019-01-03T10:55:15.106Z,139.77
2019-01-03T10:57:43.383Z,92.20
2019-01-03T11:00:12.084Z,221.87
2019-01-03T11:02:40.808Z,379.03
2019-01-03T11:05:09.226Z,169.57
2019-01-03T11:07:37.517Z,501.40
2019-01-03T11:10:06.310Z,120.03
2019-01-03T11:12:34.704Z,157.73
2019-01-03T11:15:03.089Z,160.00
2019-01-03T11:17:31.636Z,517.10
2019-01-03T11:20:00.287Z,257.43
2019-01-03T11:22:31.489Z,620.93
2019-01-03T11:25:00.802Z,458.97
2019-01-03T11:27:29.407Z,384.90
2019-01-03T11:29:57.690Z,327.90
2019-01-03T11:32:26.269Z,275.40
2019-01-03T11:34:54.803Z,320.77
2019-01-03T11:37:23.168Z,291.13
2019-01-03T11:39:56.858Z,195.03
2019-01-03T11:42:26.178Z,542.70
2019-01-03T11:44:54.719Z,260.53
2019-01-03T11:47:22.993Z,538.53
2019-01-03T11:49:51.691Z,308.80
2019-01-03T11:52:20.362Z,304.67
2019-01-03T11:54:48.945Z,141.37
2019-01-03T11:57:17.313Z,445.63
2019-01-03T11:59:45.615Z,100.17
2019-01-03T12:02:13.887Z,152.00
2019-01-03T12:04:42.454Z,75.80
2019-01-03T12:07:10.718Z,204.17
2019-01-03T12:09:39.050Z,94.93
2019-01-03T12:12:07.314Z,62.00
2019-01-03T12:14:35.589Z,87.20
2019-01-03T12:17:03.984Z,751.00
2019-01-03T12:19:32.326Z,435.33
2019-01-03T12:22:00.946Z,52.20
2019-01-03T12:24:30.729Z,293.27
2019-01-03T12:26:59.280Z,259.40
2019-01-03T12:29:27.806Z,107.80
2019-01-03T12:31:56.112Z,540.27
2019-01-03T12:34:24.691Z,135.40
2019-01-03T12:36:52.958Z,402.37
2019-01-03T12:39:21.611Z,6.93
2019-01-03T12:41:49.887Z,170.97
2019-01-03T12:44:18.136Z,62.37
2019-01-03T12:46:46.420Z,169.20
2019-01-03T12:49:14.677Z,206.63
2019-01-03T12:51:42.974Z,143.27
2019-01-03T12:54:11.795Z,465.43
2019-01-03T12:56:40.401Z,538.57
2019-01-03T12:59:08.785Z,266.97
2019-01-03T13:01:37.102Z,378.73
2019-01-03T13:04:05.366Z,253.87
2019-01-03T13:06:33.673Z,202.03
2019-01-03T13:09:01.967Z,301.60
2019-01-03T13:11:30.260Z,216.10
2019-01-03T13:13:58.624Z,323.70
2019-01-03T13:16:27.269Z,102.87
2019-01-03T13:18:55.871Z,70.27
2019-01-03T13:21:24.445Z,87.13
2019-01-03T13:23:53.043Z,52.07
2019-01-03T13:26:21.818Z,67.77
2019-01-03T13:28:50.102Z,139.37
2019-01-03T13:31:18.739Z,44.13
2019-01-03T13:33:47.081Z,65.07
2019-01-03T13:36:15.446Z,99.77
2019-01-03T13:38:43.823Z,58.80
2019-01-03T13:41:14.325Z,26.13
2019-01-03T13:43:42.633Z,157.93
2019-01-03T13:46:10.992Z,29.43
2019-01-03T13:48:39.537Z,185.47
2019-01-03T13:51:07.945Z,23.63
2019-01-03T13:53:36.524Z,57.97
2019-01-03T13:56:05.125Z,52.07
2019-01-03T13:58:34.739Z,41.80
2019-01-03T14:01:03.517Z,59.13
2019-01-03T14:03:31.831Z,261.93
2019-01-03T14:06:00.382Z,93.33
2019-01-03T14:08:28.725Z,180.27
2019-01-03T14:10:57.429Z,158.30
2019-01-03T14:13:26.065Z,148.77
2019-01-03T14:15:54.447Z,48.63
2019-01-03T14:18:22.744Z,26.10
2019-01-03T14:20:51.431Z,40.63
2019-01-03T14:23:19.834Z,85.00
2019-01-03T14:25:48.128Z,22.07
2019-01-03T14:28:16.727Z,26.50
2019-01-03T14:30:45.398Z,113.47
2019-01-03T14:33:13.984Z,295.50
2019-01-03T14:35:42.421Z,17.57
2019-01-03T14:38:10.761Z,29.57
2019-01-03T14:40:39.358Z,18.47
2019-01-03T14:43:07.687Z,121.97
2019-01-03T14:45:36.036Z,116.30
2019-01-03T14:48:04.429Z,55.93
2019-01-03T14:50:32.981Z,17.53
2019-01-03T14:53:01.719Z,51.30
2019-01-03T14:55:30.278Z,20.87
2019-01-03T14:58:17.878Z,10.73
2019-01-03T15:00:46.155Z,9.87
2019-01-03T15:03:14.679Z,7.23
2019-01-03T15:05:43.573Z,9.00
2019-01-03T15:08:12.181Z,9.93
2019-01-03T15:10:40.814Z,13.67
2019-01-03T15:13:09.431Z,6.90
2019-01-03T15:15:37.773Z,7.60
2019-01-03T15:18:06.094Z,8.30
2019-01-03T15:20:34.424Z,6.20
2019-01-03T15:23:03.037Z,7.23
2019-01-03T15:25:31.427Z,5.97
2019-01-03T15:28:00.246Z,5.50
2019-01-03T15:30:28.594Z,6.00
2019-01-03T15:32:57.221Z,8.83
2019-01-03T15:35:25.638Z,8.03
2019-01-03T15:37:53.979Z,7.33
2019-01-03T15:40:22.954Z,8.20
2019-01-03T15:42:51.245Z,6.30
2019-01-03T15:45:19.633Z,7.50
2019-01-03T15:47:48.174Z,9.90
2019-01-03T15:50:16.703Z,7.70
2019-01-03T15:52:45.266Z,9.70
2019-01-03T15:55:13.582Z,19.20
2019-01-03T15:57:41.889Z,17.23
2019-01-03T16:00:10.924Z,8.67
2019-01-03T16:02:39.553Z,9.57
2019-01-03T16:05:08.248Z,19.90
2019-01-03T16:07:36.587Z,12.77
2019-01-03T16:10:04.986Z,13.90
2019-01-03T16:12:33.295Z,16.47
2019-01-03T16:15:01.703Z,12.73
2019-01-03T16:17:30.368Z,8.00
2019-01-03T16:19:58.792Z,6.23
2019-01-03T16:22:27.398Z,7.20
2019-01-03T16:24:56.095Z,6.33
2019-01-03T16:27:24.614Z,6.60
2019-01-03T16:29:52.949Z,6.00
2019-01-03T16:32:21.771Z,5.80
2019-01-03T16:34:50.194Z,6.53
2019-01-03T16:37:18.450Z,6.20
2019-01-03T16:39:46.706Z,5.10
2019-01-03T16:42:15.138Z,7.10
2019-01-03T16:44:43.446Z,6.30
2019-01-03T16:47:11.859Z,6.47
2019-01-03T16:49:40.434Z,8.50
2019-01-03T16:52:08.779Z,5.83
2019-01-03T16:54:37.059Z,8.20
2019-01-03T16:57:05.434Z,6.47
2019-01-03T16:59:33.698Z,7.30
2019-01-03T17:02:02.237Z,11.70
2019-01-03T17:04:30.582Z,9.30
2019-01-03T17:06:59.030Z,12.97
2019-01-03T17:09:27.402Z,37.07
2019-01-03T17:11:56.107Z,25.10
2019-01-03T17:14:24.562Z,18.30
2019-01-03T17:16:53.195Z,16.20
2019-01-03T17:19:21.855Z,11.23
2019-01-03T17:21:50.230Z,12.77
2019-01-03T17:24:18.490Z,12.97
2019-01-03T17:26:47.214Z,10.87
2019-01-03T17:29:15.564Z,8.20
2019-01-03T17:31:43.838Z,11.10
2019-01-03T17:34:12.395Z,8.63
2019-01-03T17:36:40.765Z,8.33
2019-01-03T17:39:09.030Z,8.93
2019-01-03T17:41:37.299Z,10.87
2019-01-03T17:44:05.833Z,12.87
2019-01-03T17:46:34.530Z,12.17
2019-01-03T17:49:02.802Z,12.70
2019-01-03T17:51:31.066Z,12.30
2019-01-03T17:53:59.678Z,11.07
2019-01-03T17:56:28.059Z,7.37
2019-01-03T17:58:56.323Z,8.90
2019-01-03T18:01:24.762Z,8.77
2019-01-03T18:03:53.051Z,10.60
2019-01-03T18:06:21.660Z,19.40
2019-01-03T18:08:49.964Z,24.23
2019-01-03T18:11:18.638Z,17.43
2019-01-03T18:13:47.085Z,15.20
2019-01-03T18:16:15.634Z,13.97
2019-01-03T18:18:43.994Z,16.53
2019-01-03T18:21:12.651Z,13.70
2019-01-03T18:23:40.948Z,12.57
2019-01-03T18:26:09.466Z,13.47
2019-01-03T18:28:37.751Z,16.20
2019-01-03T18:31:06.108Z,14.27
2019-01-03T18:33:34.547Z,25.07
2019-01-03T18:36:03.698Z,13.40
2019-01-03T18:38:32.318Z,14.30
2019-01-03T18:41:01.007Z,15.93
2019-01-03T18:43:29.538Z,13.70
2019-01-03T18:45:57.815Z,15.40
2019-01-03T18:48:26.109Z,12.27
2019-01-03T18:50:54.387Z,11.83
2019-01-03T18:53:22.658Z,10.00
2019-01-03T18:55:50.945Z,12.30
2019-01-03T18:58:19.221Z,11.87
2019-01-03T19:00:47.573Z,14.73
2019-01-03T19:03:15.851Z,15.00
2019-01-03T19:05:44.138Z,15.97
2019-01-03T19:08:12.458Z,18.13
2019-01-03T19:10:41.044Z,14.93
2019-01-03T19:13:09.337Z,15.17
2019-01-03T19:15:37.614Z,14.63
2019-01-03T19:18:05.970Z,24.17
2019-01-03T19:20:34.342Z,27.07
2019-01-03T19:23:02.624Z,19.57
2019-01-03T19:25:30.973Z,26.20
2019-01-03T19:27:59.811Z,15.50
2019-01-03T19:30:28.443Z,12.67
2019-01-03T19:32:56.705Z,11.10
2019-01-03T19:35:25.006Z,12.80
2019-01-03T19:37:53.265Z,10.93
2019-01-03T19:40:21.592Z,14.97
2019-01-03T19:42:49.878Z,15.10
2019-01-03T19:45:18.429Z,11.93
2019-01-03T19:47:46.692Z,10.87
2019-01-03T19:50:16.417Z,13.17
2019-01-03T19:52:44.952Z,10.40
2019-01-03T19:55:13.294Z,9.80
2019-01-03T19:57:41.566Z,8.10
2019-01-03T20:00:10.942Z,9.60
2019-01-03T20:02:39.602Z,7.93
2019-01-03T20:05:08.330Z,7.57
2019-01-03T20:07:36.854Z,6.90
2019-01-03T20:10:06.542Z,8.50
2019-01-03T20:12:35.191Z,7.07
2019-01-03T20:15:03.610Z,9.00
2019-01-03T20:17:32.074Z,8.07
2019-01-03T20:20:00.397Z,8.43
2019-01-03T20:22:29.133Z,10.30
2019-01-03T20:24:57.719Z,10.40
2019-01-03T20:27:26.434Z,7.70
2019-01-03T20:29:54.790Z,9.40
2019-01-03T20:32:23.519Z,7.57
2019-01-03T20:34:52.138Z,8.70
2019-01-03T20:37:20.786Z,10.60
2019-01-03T20:39:49.172Z,11.17
2019-01-03T20:42:17.591Z,9.77
2019-01-03T20:44:46.707Z,9.50
2019-01-03T20:47:16.689Z,10.13
2019-01-03T20:49:46.510Z,10.87
2019-01-03T20:52:16.147Z,10.50
2019-01-03T20:54:45.899Z,9.67
2019-01-03T20:57:15.262Z,8.80
2019-01-03T20:59:43.929Z,9.07
2019-01-03T21:02:12.271Z,10.50
2019-01-03T21:04:41.110Z,12.23
2019-01-03T21:07:10.478Z,10.70
2019-01-03T21:09:38.830Z,10.43
2019-01-03T21:12:07.366Z,11.47
2019-01-03T21:14:36.694Z,9.70
2019-01-03T21:17:05.017Z,9.90
2019-01-03T21:19:34.392Z,10.10
2019-01-03T21:22:02.906Z,10.40
2019-01-03T21:24:31.190Z,11.17
2019-01-03T21:26:59.714Z,9.97
2019-01-03T21:29:28.038Z,8.57
2019-01-03T21:31:56.310Z,10.10
2019-01-03T21:34:32.199Z,9.70
2019-01-03T21:37:01.074Z,9.00
2019-01-03T21:39:29.654Z,9.60
2019-01-03T21:41:58.144Z,11.50
2019-01-03T21:44:26.423Z,10.60
2019-01-03T21:46:54.753Z,11.03
2019-01-03T21:49:23.013Z,11.70
2019-01-03T21:51:51.353Z,12.07
2019-01-03T21:54:23.479Z,10.37
2019-01-03T21:56:51.838Z,11.43
2019-01-03T21:59:20.131Z,9.77
2019-01-03T22:01:48.399Z,10.30
2019-01-03T22:04:16.682Z,9.50
2019-01-03T22:06:44.982Z,10.60
2019-01-03T22:09:13.498Z,9.20
2019-01-03T22:11:41.767Z,10.63
2019-01-03T22:14:10.046Z,9.23
2019-01-03T22:16:38.597Z,9.00
2019-01-03T22:19:06.957Z,8.43
2019-01-03T22:21:35.586Z,8.33
2019-01-03T22:24:03.982Z,8.53
2019-01-03T22:26:32.250Z,8.37
2019-01-03T22:29:00.542Z,7.53
2019-01-03T22:31:30.074Z,7.83
2019-01-03T22:33:58.734Z,7.53
2019-01-03T22:36:26.998Z,6.43
2019-01-03T22:38:55.373Z,6.10
2019-01-03T22:41:23.921Z,7.93
2019-01-03T22:43:52.214Z,6.03
2019-01-03T22:46:20.634Z,6.57
2019-01-03T22:48:49.287Z,6.37
2019-01-03T22:51:20.304Z,6.70
2019-01-03T22:53:47.570Z,6.87
2019-01-03T22:56:15.907Z,5.80
2019-01-03T22:58:44.165Z,6.63
2019-01-03T23:01:12.514Z,7.13
2019-01-03T23:03:41.270Z,6.57
2019-01-03T23:06:09.564Z,7.10
2019-01-03T23:08:37.896Z,6.80
2019-01-03T23:11:06.175Z,21.93
2019-01-03T23:13:34.486Z,7.87
2019-01-03T23:16:03.856Z,22.50
2019-01-03T23:18:32.658Z,19.93
2019-01-03T23:21:00.942Z,7.50
2019-01-03T23:23:29.565Z,7.10
2019-01-03T23:25:58.080Z,6.90
2019-01-03T23:28:26.405Z,6.73
2019-01-03T23:30:54.673Z,10.73
2019-01-03T23:33:23.004Z,7.67
2019-01-03T23:35:51.573Z,10.00
2019-01-03T23:38:19.855Z,8.53
2019-01-03T23:40:48.424Z,9.63
2019-01-03T23:43:16.694Z,6.73
2019-01-03T23:45:44.982Z,8.00
2019-01-03T23:48:13.507Z,6.50
2019-01-03T23:50:41.853Z,6.43
2019-01-03T23:53:10.126Z,6.73
2019-01-03T23:55:40.030Z,6.50
2019-01-03T23:58:08.595Z,8.23
